createdAt,value
2018-10-16T00:00:35.047Z,0
2018-10-16T00:01:15.642Z,0
2018-10-16T00:01:56.373Z,0
2018-10-16T00:02:36.931Z,0
2018-10-16T00:03:17.680Z,0
2018-10-16T00:03:58.086Z,0
2018-10-16T00:04:38.655Z,0
2018-10-16T00:05:19.229Z,0
2018-10-16T00:05:59.799Z,0
2018-10-16T00:06:40.350Z,0
2018-10-16T00:07:20.923Z,0
2018-10-16T00:08:01.492Z,0
2018-10-16T00:08:42.050Z,0
2018-10-16T00:09:22.674Z,0
2018-10-16T00:10:03.255Z,0
2018-10-16T00:10:43.814Z,0
2018-10-16T00:11:24.447Z,0
2018-10-16T00:12:05.005Z,0
2018-10-16T00:12:45.565Z,0
2018-10-16T00:13:26.126Z,0
2018-10-16T00:14:06.692Z,0
2018-10-16T00:14:47.284Z,0
2018-10-16T00:15:27.855Z,0
2018-10-16T00:16:08.449Z,0
2018-10-16T00:16:48.989Z,0
2018-10-16T00:17:29.582Z,0
2018-10-16T00:18:10.160Z,0
2018-10-16T00:18:50.727Z,0
2018-10-16T00:19:31.299Z,0
2018-10-16T00:20:11.888Z,0
2018-10-16T00:20:52.452Z,0
2018-10-16T00:21:33.018Z,0
2018-10-16T00:22:13.577Z,0
2018-10-16T00:22:54.960Z,0
2018-10-16T00:23:35.514Z,0
2018-10-16T00:24:16.082Z,0
2018-10-16T00:24:56.645Z,0
2018-10-16T00:25:37.226Z,0
2018-10-16T00:26:17.853Z,0
2018-10-16T00:26:58.411Z,0
2018-10-16T00:27:38.995Z,0
2018-10-16T00:28:19.558Z,0
2018-10-16T00:29:00.130Z,0
2018-10-16T00:29:40.709Z,0
2018-10-16T00:30:21.298Z,0
2018-10-16T00:31:01.864Z,0
2018-10-16T00:31:42.425Z,0
2018-10-16T00:32:22.984Z,0
2018-10-16T00:33:03.567Z,0
2018-10-16T00:33:44.154Z,0
2018-10-16T00:34:24.709Z,0
2018-10-16T00:35:05.285Z,0
2018-10-16T00:35:45.844Z,0
2018-10-16T00:36:26.403Z,0
2018-10-16T00:37:06.971Z,0
2018-10-16T00:37:47.537Z,0
2018-10-16T00:38:28.110Z,0
2018-10-16T00:39:08.664Z,0
2018-10-16T00:39:49.218Z,0
2018-10-16T00:40:29.847Z,0
2018-10-16T00:41:10.424Z,0
2018-10-16T00:41:50.963Z,0
2018-10-16T00:42:31.521Z,0
2018-10-16T00:43:12.079Z,0
2018-10-16T00:43:52.653Z,0
2018-10-16T00:44:33.231Z,0
2018-10-16T00:45:13.797Z,0
2018-10-16T00:45:54.378Z,0
2018-10-16T00:46:35.002Z,0
2018-10-16T00:47:15.605Z,0
2018-10-16T00:47:56.188Z,0
2018-10-16T00:48:36.745Z,0
2018-10-16T00:49:17.330Z,0
2018-10-16T00:49:57.925Z,0
2018-10-16T00:50:38.570Z,0
2018-10-16T00:51:19.154Z,0
2018-10-16T00:51:59.746Z,0
2018-10-16T00:52:40.315Z,0
2018-10-16T00:53:20.883Z,0
2018-10-16T00:54:01.458Z,0
2018-10-16T00:54:42.018Z,0
2018-10-16T00:55:22.581Z,0
2018-10-16T00:56:03.159Z,0
2018-10-16T00:56:43.721Z,0
2018-10-16T00:57:24.350Z,0
2018-10-16T00:58:04.924Z,0
2018-10-16T00:58:45.524Z,0
2018-10-16T00:59:26.064Z,0
2018-10-16T01:00:06.662Z,0
2018-10-16T01:00:47.232Z,0
2018-10-16T01:01:27.782Z,0
2018-10-16T01:02:08.410Z,0
2018-10-16T01:02:48.995Z,0
2018-10-16T01:03:29.586Z,0
2018-10-16T01:04:10.197Z,0
2018-10-16T01:04:50.784Z,0
2018-10-16T01:05:31.368Z,0
2018-10-16T01:06:11.956Z,0
2018-10-16T01:06:52.589Z,0
2018-10-16T01:07:33.147Z,0
2018-10-16T01:08:13.706Z,0
2018-10-16T01:08:54.306Z,0
2018-10-16T01:09:34.871Z,0
2018-10-16T01:10:15.451Z,0
2018-10-16T01:10:56.043Z,0
2018-10-16T01:11:36.630Z,0
2018-10-16T01:12:17.189Z,0
2018-10-16T01:12:57.750Z,0
2018-10-16T01:13:38.325Z,0
2018-10-16T01:14:18.909Z,0
2018-10-16T01:14:59.479Z,0
2018-10-16T01:15:40.074Z,0
2018-10-16T01:16:20.657Z,0
2018-10-16T01:17:01.238Z,0
2018-10-16T01:17:41.840Z,0
2018-10-16T01:18:22.405Z,0
2018-10-16T01:19:02.980Z,0
2018-10-16T01:19:43.543Z,0
2018-10-16T01:20:24.115Z,0
2018-10-16T01:21:04.671Z,0
2018-10-16T01:21:45.237Z,0
2018-10-16T01:22:25.852Z,0
2018-10-16T01:23:06.442Z,0
2018-10-16T01:23:47.034Z,0
2018-10-16T01:24:27.605Z,0
2018-10-16T01:25:08.194Z,0
2018-10-16T01:25:48.770Z,0
2018-10-16T01:26:29.318Z,0
2018-10-16T01:27:09.873Z,0
2018-10-16T01:27:50.434Z,0
2018-10-16T01:28:31.019Z,0
2018-10-16T01:29:11.594Z,0
2018-10-16T01:29:52.153Z,0
2018-10-16T01:30:32.723Z,0
2018-10-16T01:31:13.288Z,0
2018-10-16T01:31:53.872Z,0
2018-10-16T01:32:34.430Z,0
2018-10-16T01:33:14.983Z,0
2018-10-16T01:33:55.556Z,0
2018-10-16T01:34:36.127Z,0
2018-10-16T01:35:16.699Z,0
2018-10-16T01:35:57.274Z,0
2018-10-16T01:36:37.868Z,0
2018-10-16T01:37:18.434Z,0
2018-10-16T01:37:58.982Z,0
2018-10-16T01:38:39.553Z,0
2018-10-16T01:39:20.120Z,0
2018-10-16T01:40:00.688Z,0
2018-10-16T01:40:41.255Z,0
2018-10-16T01:41:21.826Z,0
2018-10-16T01:42:02.406Z,0
2018-10-16T01:42:42.984Z,0
2018-10-16T01:43:23.557Z,0
2018-10-16T01:44:04.123Z,0
2018-10-16T01:44:44.712Z,0
2018-10-16T01:45:25.289Z,0
2018-10-16T01:46:05.861Z,0
2018-10-16T01:46:46.418Z,0
2018-10-16T01:47:27.023Z,0
2018-10-16T01:48:07.566Z,0
2018-10-16T01:48:48.141Z,0
2018-10-16T01:49:28.725Z,0
2018-10-16T01:50:09.332Z,0
2018-10-16T01:50:49.893Z,0
2018-10-16T01:51:30.496Z,0
2018-10-16T01:52:11.079Z,0
2018-10-16T01:52:51.633Z,0
2018-10-16T01:53:32.198Z,0
2018-10-16T01:54:12.771Z,0
2018-10-16T01:54:53.336Z,0
2018-10-16T01:55:33.917Z,0
2018-10-16T01:56:14.486Z,0
2018-10-16T01:56:55.062Z,0
2018-10-16T01:57:35.640Z,0
2018-10-16T01:58:16.204Z,0
2018-10-16T01:58:56.796Z,0
2018-10-16T01:59:37.352Z,0
2018-10-16T02:00:17.915Z,0
2018-10-16T02:00:58.491Z,0
2018-10-16T02:01:39.049Z,0
2018-10-16T02:02:19.623Z,0
2018-10-16T02:03:00.208Z,0
2018-10-16T02:03:40.779Z,0
2018-10-16T02:04:21.349Z,0
2018-10-16T02:05:01.942Z,0
2018-10-16T02:05:42.522Z,0
2018-10-16T02:06:23.097Z,0
2018-10-16T02:07:03.655Z,0
2018-10-16T02:07:44.916Z,0
2018-10-16T02:08:25.475Z,0
2018-10-16T02:09:06.075Z,0
2018-10-16T02:09:46.645Z,0
2018-10-16T02:10:27.227Z,0
2018-10-16T02:11:07.816Z,0
2018-10-16T02:11:48.397Z,0
2018-10-16T02:12:28.974Z,0
2018-10-16T02:13:09.537Z,0
2018-10-16T02:13:50.091Z,0
2018-10-16T02:14:30.725Z,0
2018-10-16T02:15:11.233Z,0
2018-10-16T02:15:51.785Z,0
2018-10-16T02:16:32.366Z,0
2018-10-16T02:17:12.939Z,0
2018-10-16T02:17:53.518Z,0
2018-10-16T02:18:34.112Z,0
2018-10-16T02:19:14.696Z,0
2018-10-16T02:19:55.299Z,0
2018-10-16T02:20:35.935Z,0
2018-10-16T02:21:16.479Z,0
2018-10-16T02:21:57.024Z,0
2018-10-16T02:22:37.620Z,0
2018-10-16T02:23:18.199Z,0
2018-10-16T02:23:58.803Z,0
2018-10-16T02:24:39.371Z,0
2018-10-16T02:25:19.979Z,0
2018-10-16T02:26:00.560Z,0
2018-10-16T02:26:41.154Z,0
2018-10-16T02:27:21.709Z,0
2018-10-16T02:28:02.294Z,0
2018-10-16T02:28:42.880Z,0
2018-10-16T02:29:23.442Z,0
2018-10-16T02:30:04.013Z,0
2018-10-16T02:30:44.559Z,0
2018-10-16T02:31:25.137Z,0
2018-10-16T02:32:05.714Z,0
2018-10-16T02:32:46.288Z,0
2018-10-16T02:33:26.846Z,0
2018-10-16T02:34:07.421Z,0
2018-10-16T02:34:48.019Z,0
2018-10-16T02:35:28.592Z,0
2018-10-16T02:36:09.186Z,0
2018-10-16T02:36:49.750Z,0
2018-10-16T02:37:30.323Z,0
2018-10-16T02:38:10.901Z,0
2018-10-16T02:38:51.453Z,0
2018-10-16T02:39:32.070Z,0
2018-10-16T02:40:12.630Z,0
2018-10-16T02:40:53.201Z,0
2018-10-16T02:41:33.764Z,0
2018-10-16T02:42:14.336Z,0
2018-10-16T02:42:54.891Z,0
2018-10-16T02:43:35.445Z,0
2018-10-16T02:44:15.999Z,0
2018-10-16T02:44:56.576Z,0
2018-10-16T02:45:37.161Z,0
2018-10-16T02:46:17.738Z,0
2018-10-16T02:46:58.328Z,0
2018-10-16T02:47:38.918Z,0
2018-10-16T02:48:19.471Z,0
2018-10-16T02:49:00.019Z,0
2018-10-16T02:49:40.572Z,0
2018-10-16T02:50:21.126Z,0
2018-10-16T02:51:01.801Z,0
2018-10-16T02:51:42.390Z,0
2018-10-16T02:52:22.950Z,0
2018-10-16T02:53:03.529Z,0
2018-10-16T02:53:44.110Z,0
2018-10-16T02:54:24.706Z,0
2018-10-16T02:55:05.267Z,0
2018-10-16T02:55:45.837Z,0
2018-10-16T02:56:26.389Z,0
2018-10-16T02:57:06.966Z,0
2018-10-16T02:57:47.538Z,0
2018-10-16T02:58:28.119Z,0
2018-10-16T02:59:08.670Z,0
2018-10-16T02:59:49.236Z,0
2018-10-16T03:00:29.813Z,0
2018-10-16T03:01:10.369Z,0
2018-10-16T03:01:50.984Z,0
2018-10-16T03:02:31.528Z,0
2018-10-16T03:03:12.097Z,0
2018-10-16T03:03:52.696Z,0
2018-10-16T03:04:33.251Z,0
2018-10-16T03:05:13.829Z,0
2018-10-16T03:05:54.435Z,0
2018-10-16T03:06:35.012Z,0
2018-10-16T03:07:15.578Z,0
2018-10-16T03:07:56.166Z,0
2018-10-16T03:08:36.733Z,0
2018-10-16T03:09:17.310Z,0
2018-10-16T03:09:57.855Z,0
2018-10-16T03:10:38.443Z,0
2018-10-16T03:11:19.022Z,0
2018-10-16T03:11:59.588Z,0
2018-10-16T03:12:40.139Z,0
2018-10-16T03:13:20.747Z,0
2018-10-16T03:14:01.317Z,0
2018-10-16T03:14:41.890Z,0
2018-10-16T03:15:22.493Z,0
2018-10-16T03:16:03.061Z,0
2018-10-16T03:16:43.646Z,0
2018-10-16T03:17:24.243Z,0
2018-10-16T03:18:04.818Z,0
2018-10-16T03:18:45.398Z,0
2018-10-16T03:19:25.958Z,0
2018-10-16T03:20:06.540Z,0
2018-10-16T03:20:47.096Z,0
2018-10-16T03:21:27.644Z,0
2018-10-16T03:22:08.186Z,0
2018-10-16T03:22:48.758Z,0
2018-10-16T03:23:29.332Z,0
2018-10-16T03:24:09.897Z,0
2018-10-16T03:24:50.459Z,0
2018-10-16T03:25:31.035Z,0
2018-10-16T03:26:11.598Z,0
2018-10-16T03:26:52.166Z,0
2018-10-16T03:27:32.740Z,0
2018-10-16T03:28:13.289Z,0
2018-10-16T03:28:53.870Z,0
2018-10-16T03:29:34.464Z,0
2018-10-16T03:30:15.027Z,0
2018-10-16T03:30:55.606Z,0
2018-10-16T03:31:36.165Z,0
2018-10-16T03:32:16.769Z,0
2018-10-16T03:32:57.324Z,0
2018-10-16T03:33:37.896Z,0
2018-10-16T03:34:18.453Z,0
2018-10-16T03:34:59.025Z,0
2018-10-16T03:35:39.600Z,0
2018-10-16T03:36:20.216Z,0
2018-10-16T03:37:00.783Z,0
2018-10-16T03:37:41.384Z,0
2018-10-16T03:38:21.953Z,0
2018-10-16T03:39:02.569Z,0
2018-10-16T03:39:43.151Z,0
2018-10-16T03:40:23.720Z,0
2018-10-16T03:41:04.297Z,0
2018-10-16T03:41:44.859Z,0
2018-10-16T03:42:25.456Z,0
2018-10-16T03:43:06.010Z,0
2018-10-16T03:43:46.580Z,0
2018-10-16T03:44:27.214Z,0
2018-10-16T03:45:07.785Z,0
2018-10-16T03:45:48.358Z,0
2018-10-16T03:46:28.930Z,0
2018-10-16T03:47:09.513Z,0
2018-10-16T03:47:50.100Z,0
2018-10-16T03:48:30.664Z,0
2018-10-16T03:49:11.236Z,0
2018-10-16T03:49:51.817Z,0
2018-10-16T03:50:32.400Z,0
2018-10-16T03:51:12.952Z,0
2018-10-16T03:51:53.574Z,0
2018-10-16T03:52:34.158Z,0
2018-10-16T03:53:14.742Z,0
2018-10-16T03:53:55.343Z,0
2018-10-16T03:54:35.899Z,0
2018-10-16T03:55:16.467Z,0
2018-10-16T03:55:57.055Z,0
2018-10-16T03:56:37.632Z,0
2018-10-16T03:57:18.255Z,0
2018-10-16T03:57:58.775Z,0
2018-10-16T03:58:39.382Z,0
2018-10-16T03:59:19.949Z,0
2018-10-16T04:00:00.519Z,0
2018-10-16T04:00:41.067Z,0
2018-10-16T04:01:21.645Z,0
2018-10-16T04:02:02.211Z,0
2018-10-16T04:02:42.781Z,0
2018-10-16T04:03:23.351Z,0
2018-10-16T04:04:03.926Z,0
2018-10-16T04:04:44.499Z,0
2018-10-16T04:05:25.093Z,0
2018-10-16T04:06:05.658Z,0
2018-10-16T04:06:46.315Z,0
2018-10-16T04:07:26.824Z,0
2018-10-16T04:08:07.415Z,0
2018-10-16T04:08:48.012Z,0
2018-10-16T04:09:28.661Z,0
2018-10-16T04:10:09.244Z,0
2018-10-16T04:10:49.842Z,0
2018-10-16T04:11:30.408Z,0
2018-10-16T04:12:10.980Z,0
2018-10-16T04:12:51.581Z,0
2018-10-16T04:13:32.151Z,0
2018-10-16T04:14:12.726Z,0
2018-10-16T04:14:53.305Z,0
2018-10-16T04:15:33.894Z,0
2018-10-16T04:16:14.428Z,0
2018-10-16T04:16:54.988Z,0
2018-10-16T04:17:35.568Z,0
2018-10-16T04:18:16.125Z,0
2018-10-16T04:18:56.679Z,0
2018-10-16T04:19:37.232Z,0
2018-10-16T04:20:17.788Z,0
2018-10-16T04:20:58.391Z,0
2018-10-16T04:21:38.959Z,0
2018-10-16T04:22:19.548Z,0
2018-10-16T04:23:00.231Z,0
2018-10-16T04:23:40.718Z,0
2018-10-16T04:24:21.272Z,0
2018-10-16T04:25:01.868Z,0
2018-10-16T04:25:42.426Z,0
2018-10-16T04:26:23.000Z,0
2018-10-16T04:27:03.567Z,0
2018-10-16T04:27:44.157Z,0
2018-10-16T04:28:24.700Z,0
2018-10-16T04:29:05.326Z,0
2018-10-16T04:29:45.853Z,0
2018-10-16T04:30:26.416Z,0
2018-10-16T04:31:06.977Z,0
2018-10-16T04:31:47.581Z,0
2018-10-16T04:32:28.148Z,0
2018-10-16T04:33:08.730Z,0
2018-10-16T04:33:49.314Z,0
2018-10-16T04:34:29.894Z,0
2018-10-16T04:35:10.461Z,0
2018-10-16T04:35:51.042Z,0
2018-10-16T04:36:31.602Z,0
2018-10-16T04:37:12.160Z,0
2018-10-16T04:37:52.726Z,0
2018-10-16T04:38:33.282Z,0
2018-10-16T04:39:13.870Z,0
2018-10-16T04:39:54.432Z,0
2018-10-16T04:40:34.987Z,0
2018-10-16T04:41:15.543Z,0
2018-10-16T04:41:56.147Z,0
2018-10-16T04:42:36.713Z,0
2018-10-16T04:43:17.399Z,0
2018-10-16T04:43:57.978Z,0
2018-10-16T04:44:38.534Z,0
2018-10-16T04:45:19.094Z,0
2018-10-16T04:45:59.681Z,0
2018-10-16T04:46:40.255Z,0
2018-10-16T04:47:20.828Z,0
2018-10-16T04:48:01.436Z,0
2018-10-16T04:48:41.990Z,0
2018-10-16T04:49:22.564Z,0
2018-10-16T04:50:03.112Z,0
2018-10-16T04:50:43.690Z,0
2018-10-16T04:51:24.272Z,0
2018-10-16T04:52:04.851Z,0
2018-10-16T04:52:45.417Z,0
2018-10-16T04:53:26.005Z,0
2018-10-16T04:54:06.595Z,0
2018-10-16T04:54:47.170Z,0
2018-10-16T04:55:27.721Z,0
2018-10-16T04:56:08.334Z,0
2018-10-16T04:56:48.895Z,0
2018-10-16T04:57:29.472Z,0
2018-10-16T04:58:10.053Z,0
2018-10-16T04:58:50.734Z,0
2018-10-16T04:59:31.297Z,0
2018-10-16T05:00:11.850Z,0
2018-10-16T05:00:52.433Z,0
2018-10-16T05:01:32.990Z,0
2018-10-16T05:02:13.578Z,0
2018-10-16T05:02:54.173Z,0
2018-10-16T05:03:34.741Z,0
2018-10-16T05:04:15.354Z,0
2018-10-16T05:04:55.924Z,0
2018-10-16T05:05:36.494Z,0
2018-10-16T05:06:17.074Z,0
2018-10-16T05:06:57.647Z,0
2018-10-16T05:07:38.220Z,0
2018-10-16T05:08:18.775Z,0
2018-10-16T05:08:59.336Z,0
2018-10-16T05:09:39.951Z,0
2018-10-16T05:10:20.860Z,0
2018-10-16T05:11:01.409Z,0
2018-10-16T05:11:42.006Z,0
2018-10-16T05:12:22.582Z,0
2018-10-16T05:13:03.150Z,0
2018-10-16T05:13:43.744Z,0
2018-10-16T05:16:18.064Z,0
2018-10-16T05:16:58.534Z,0
2018-10-16T05:17:39.099Z,0
2018-10-16T05:18:19.663Z,0
2018-10-16T05:19:00.428Z,0
2018-10-16T05:19:40.907Z,0
2018-10-16T05:20:21.476Z,0
2018-10-16T05:21:02.294Z,0
2018-10-16T05:21:43.109Z,0
2018-10-16T05:22:23.872Z,0
2018-10-16T05:23:04.521Z,0
2018-10-16T05:23:45.276Z,0
2018-10-16T05:24:26.258Z,0
2018-10-16T05:25:07.179Z,0
2018-10-16T05:25:47.854Z,0
2018-10-16T05:26:28.599Z,0
2018-10-16T05:27:10.155Z,0
2018-10-16T05:27:51.217Z,0
2018-10-16T05:28:32.185Z,0
2018-10-16T05:29:12.903Z,0
2018-10-16T05:29:53.595Z,0
2018-10-16T05:30:35.125Z,0
2018-10-16T05:31:16.179Z,0
2018-10-16T05:31:57.069Z,0
2018-10-16T05:32:37.865Z,0
2018-10-16T05:33:18.784Z,0
2018-10-16T05:33:59.640Z,0
2018-10-16T05:34:40.627Z,0
2018-10-16T05:35:21.185Z,0
2018-10-16T05:36:01.762Z,5
2018-10-16T05:36:42.316Z,5
2018-10-16T05:37:22.869Z,5
2018-10-16T05:38:03.436Z,5
2018-10-16T05:38:44.009Z,5
2018-10-16T05:39:24.566Z,5
2018-10-16T05:40:05.118Z,5
2018-10-16T05:40:45.685Z,5
2018-10-16T05:41:26.266Z,5
2018-10-16T05:42:06.828Z,5
2018-10-16T05:42:47.387Z,5
2018-10-16T05:43:27.952Z,5
2018-10-16T05:44:08.530Z,10
2018-10-16T05:44:49.069Z,10
2018-10-16T05:45:29.637Z,10
2018-10-16T05:46:10.219Z,10
2018-10-16T05:46:50.796Z,10
2018-10-16T05:47:31.344Z,10
2018-10-16T05:48:11.930Z,10
2018-10-16T05:48:52.517Z,10
2018-10-16T05:49:33.071Z,10
2018-10-16T05:50:13.630Z,10
2018-10-16T05:50:54.189Z,15
2018-10-16T05:51:34.758Z,15
2018-10-16T05:52:15.305Z,15
2018-10-16T05:52:55.903Z,15
2018-10-16T05:53:36.483Z,15
2018-10-16T05:54:17.153Z,15
2018-10-16T05:54:57.590Z,15
2018-10-16T05:55:38.219Z,15
2018-10-16T05:56:18.752Z,20
2018-10-16T05:56:59.332Z,20
2018-10-16T05:57:39.919Z,20
2018-10-16T05:58:20.479Z,20
2018-10-16T05:59:01.097Z,20
2018-10-16T05:59:41.656Z,20
2018-10-16T06:00:22.220Z,20
2018-10-16T06:01:02.815Z,20
2018-10-16T06:01:43.425Z,20
2018-10-16T06:02:23.991Z,25
2018-10-16T06:03:04.547Z,25
2018-10-16T06:03:45.097Z,25
2018-10-16T06:04:25.660Z,25
2018-10-16T06:05:06.282Z,25
2018-10-16T06:05:47.005Z,25
2018-10-16T06:06:27.426Z,25
2018-10-16T06:07:08.045Z,30
2018-10-16T06:07:48.626Z,30
2018-10-16T06:08:29.225Z,30
2018-10-16T06:09:09.776Z,30
2018-10-16T06:09:50.335Z,30
2018-10-16T06:10:30.926Z,30
2018-10-16T06:11:11.473Z,30
2018-10-16T06:11:52.032Z,35
2018-10-16T06:12:32.605Z,35
2018-10-16T06:13:13.192Z,35
2018-10-16T06:13:53.782Z,35
2018-10-16T06:14:34.356Z,35
2018-10-16T06:15:14.912Z,35
2018-10-16T06:15:55.528Z,35
2018-10-16T06:16:36.147Z,40
2018-10-16T06:17:16.644Z,40
2018-10-16T06:17:57.193Z,40
2018-10-16T06:18:37.763Z,40
2018-10-16T06:19:18.335Z,40
2018-10-16T06:19:58.886Z,40
2018-10-16T06:20:39.498Z,40
2018-10-16T06:21:20.083Z,45
2018-10-16T06:22:00.625Z,45
2018-10-16T06:22:41.186Z,45
2018-10-16T06:23:21.773Z,45
2018-10-16T06:24:02.371Z,45
2018-10-16T06:24:42.943Z,45
2018-10-16T06:25:23.492Z,50
2018-10-16T06:26:04.092Z,50
2018-10-16T06:26:44.670Z,50
2018-10-16T06:27:25.248Z,50
2018-10-16T06:28:05.802Z,50
2018-10-16T06:28:46.401Z,50
2018-10-16T06:29:26.992Z,55
2018-10-16T06:30:07.607Z,55
2018-10-16T06:30:48.106Z,55
2018-10-16T06:31:28.674Z,55
2018-10-16T06:32:09.240Z,55
2018-10-16T06:32:49.916Z,55
2018-10-16T06:33:30.506Z,55
2018-10-16T06:34:11.082Z,60
2018-10-16T06:34:51.692Z,60
2018-10-16T06:35:32.315Z,60
2018-10-16T06:36:12.864Z,60
2018-10-16T06:36:53.418Z,60
2018-10-16T06:37:33.984Z,60
2018-10-16T06:38:14.539Z,65
2018-10-16T06:38:55.122Z,65
2018-10-16T06:39:35.713Z,65
2018-10-16T06:40:16.289Z,65
2018-10-16T06:40:56.922Z,65
2018-10-16T06:41:37.507Z,65
2018-10-16T06:42:17.999Z,70
2018-10-16T06:42:58.553Z,70
2018-10-16T06:43:39.137Z,70
2018-10-16T06:44:19.714Z,70
2018-10-16T06:45:00.290Z,70
2018-10-16T06:45:40.876Z,70
2018-10-16T06:46:21.504Z,75
2018-10-16T06:47:01.999Z,70
2018-10-16T06:47:42.714Z,75
2018-10-16T06:48:23.491Z,75
2018-10-16T06:49:03.772Z,75
2018-10-16T06:49:44.340Z,75
2018-10-16T06:50:24.911Z,75
2018-10-16T06:51:05.544Z,75
2018-10-16T06:51:46.130Z,75
2018-10-16T06:52:26.690Z,75
2018-10-16T06:53:07.365Z,80
2018-10-16T06:53:47.892Z,80
2018-10-16T06:54:28.476Z,80
2018-10-16T06:55:09.120Z,80
2018-10-16T06:55:49.594Z,80
2018-10-16T06:56:30.176Z,80
2018-10-16T06:57:10.798Z,85
2018-10-16T06:57:51.377Z,85
2018-10-16T06:58:31.959Z,85
2018-10-16T06:59:12.482Z,85
2018-10-16T06:59:53.024Z,85
2018-10-16T07:00:33.609Z,85
2018-10-16T07:01:14.175Z,90
2018-10-16T07:01:54.755Z,95
2018-10-16T07:02:35.316Z,90
2018-10-16T07:03:15.872Z,90
2018-10-16T07:03:56.434Z,90
2018-10-16T07:04:37.016Z,90
2018-10-16T07:05:17.579Z,95
2018-10-16T07:05:58.147Z,95
2018-10-16T07:06:38.764Z,95
2018-10-16T07:07:19.504Z,95
2018-10-16T07:07:59.892Z,100
2018-10-16T07:08:40.470Z,100
2018-10-16T07:09:21.038Z,100
2018-10-16T07:10:01.604Z,100
2018-10-16T07:10:42.172Z,105
2018-10-16T07:11:22.739Z,105
2018-10-16T07:12:03.322Z,105
2018-10-16T07:12:43.902Z,105
2018-10-16T07:13:24.508Z,110
2018-10-16T07:14:05.084Z,110
2018-10-16T07:14:45.675Z,110
2018-10-16T07:15:26.290Z,110
2018-10-16T07:16:06.927Z,115
2018-10-16T07:16:47.504Z,115
2018-10-16T07:17:28.063Z,115
2018-10-16T07:18:08.659Z,115
2018-10-16T07:18:49.231Z,115
2018-10-16T07:19:29.795Z,120
2018-10-16T07:20:10.347Z,120
2018-10-16T07:20:50.909Z,120
2018-10-16T07:21:31.519Z,120
2018-10-16T07:22:12.020Z,125
2018-10-16T07:22:52.607Z,125
2018-10-16T07:23:33.263Z,125
2018-10-16T07:24:13.858Z,125
2018-10-16T07:24:54.410Z,130
2018-10-16T07:25:35.005Z,130
2018-10-16T07:26:15.557Z,130
2018-10-16T07:26:56.132Z,130
2018-10-16T07:27:36.707Z,135
2018-10-16T07:28:17.286Z,140
2018-10-16T07:28:57.873Z,140
2018-10-16T07:29:38.432Z,145
2018-10-16T07:30:18.978Z,155
2018-10-16T07:30:59.530Z,155
2018-10-16T07:31:40.157Z,185
2018-10-16T07:32:20.736Z,230
2018-10-16T07:33:01.309Z,360
2018-10-16T07:33:41.862Z,570
2018-10-16T07:34:22.442Z,780
2018-10-16T07:35:03.021Z,955
2018-10-16T07:35:43.618Z,980
2018-10-16T07:36:24.248Z,985
2018-10-16T07:37:04.813Z,1005
2018-10-16T07:37:45.382Z,1005
2018-10-16T07:38:26.014Z,995
2018-10-16T07:39:06.499Z,990
2018-10-16T07:39:47.052Z,945
2018-10-16T07:40:27.602Z,845
2018-10-16T07:41:08.181Z,755
2018-10-16T07:41:48.747Z,675
2018-10-16T07:42:29.334Z,645
2018-10-16T07:43:09.946Z,640
2018-10-16T07:43:50.467Z,685
2018-10-16T07:44:31.082Z,820
2018-10-16T07:45:11.668Z,975
2018-10-16T07:45:52.231Z,1085
2018-10-16T07:46:32.797Z,1135
2018-10-16T07:47:13.384Z,1135
2018-10-16T07:47:53.946Z,1160
2018-10-16T07:48:34.624Z,1165
2018-10-16T07:49:15.112Z,1160
2018-10-16T07:49:55.725Z,1165
2018-10-16T07:50:36.300Z,1170
2018-10-16T07:51:16.858Z,1190
2018-10-16T07:51:57.452Z,1185
2018-10-16T07:52:38.019Z,1150
2018-10-16T07:53:18.607Z,1120
2018-10-16T07:53:59.185Z,1095
2018-10-16T07:54:39.761Z,1115
2018-10-16T07:55:20.336Z,1115
2018-10-16T07:56:00.904Z,1080
2018-10-16T07:56:41.469Z,1055
2018-10-16T07:57:22.091Z,1060
2018-10-16T07:58:02.630Z,1070
2018-10-16T07:58:43.193Z,1095
2018-10-16T07:59:23.743Z,1115
2018-10-16T08:00:04.335Z,1140
2018-10-16T08:00:44.906Z,1130
2018-10-16T08:01:25.493Z,1120
2018-10-16T08:02:06.102Z,1120
2018-10-16T08:02:46.673Z,1125
2018-10-16T08:03:27.250Z,1125
2018-10-16T08:04:07.854Z,1135
2018-10-16T08:04:48.452Z,1170
2018-10-16T08:05:29.023Z,1150
2018-10-16T08:06:09.601Z,1130
2018-10-16T08:06:50.156Z,1140
2018-10-16T08:07:30.762Z,1155
2018-10-16T08:08:11.335Z,1155
2018-10-16T08:08:51.896Z,1175
2018-10-16T08:09:32.466Z,1200
2018-10-16T08:10:13.038Z,1190
2018-10-16T08:10:53.624Z,1150
2018-10-16T08:11:34.303Z,1115
2018-10-16T08:12:14.752Z,1140
2018-10-16T08:12:55.318Z,1135
2018-10-16T08:15:38.035Z,1110
2018-10-16T08:16:18.606Z,1090
2018-10-16T08:16:59.209Z,1095
2018-10-16T08:17:39.757Z,1105
2018-10-16T08:18:20.325Z,1090
2018-10-16T08:19:00.909Z,1095
2018-10-16T08:19:41.462Z,1125
2018-10-16T08:20:22.059Z,1115
2018-10-16T08:21:02.606Z,1090
2018-10-16T08:21:43.177Z,1115
2018-10-16T08:22:23.739Z,1145
2018-10-16T08:23:04.310Z,1120
2018-10-16T08:23:44.891Z,1105
2018-10-16T08:24:25.471Z,1095
2018-10-16T08:25:06.030Z,1070
2018-10-16T08:25:46.605Z,1070
2018-10-16T08:26:27.177Z,1080
2018-10-16T08:27:07.751Z,1060
2018-10-16T08:27:48.317Z,1040
2018-10-16T08:28:28.881Z,1035
2018-10-16T08:29:09.460Z,1065
2018-10-16T08:29:50.036Z,1085
2018-10-16T08:30:30.684Z,1090
2018-10-16T08:31:11.184Z,1095
2018-10-16T08:31:51.751Z,1095
2018-10-16T08:32:32.324Z,1060
2018-10-16T08:33:12.891Z,900
2018-10-16T08:33:53.544Z,675
2018-10-16T08:34:34.026Z,475
2018-10-16T08:35:14.608Z,375
2018-10-16T08:35:55.189Z,365
2018-10-16T08:36:35.795Z,355
2018-10-16T08:37:16.364Z,350
2018-10-16T08:37:56.906Z,340
2018-10-16T08:38:37.483Z,335
2018-10-16T08:39:18.062Z,325
2018-10-16T08:39:58.683Z,320
2018-10-16T08:40:39.258Z,315
2018-10-16T08:41:19.814Z,305
2018-10-16T08:42:00.420Z,300
2018-10-16T08:42:40.932Z,290
2018-10-16T08:43:21.504Z,285
2018-10-16T08:44:02.109Z,280
2018-10-16T08:44:42.718Z,270
2018-10-16T08:45:23.253Z,265
2018-10-16T08:46:03.815Z,255
2018-10-16T08:46:44.408Z,255
2018-10-16T08:47:24.997Z,250
2018-10-16T08:48:05.597Z,245
2018-10-16T08:48:46.165Z,235
2018-10-16T08:49:26.739Z,230
2018-10-16T08:50:07.359Z,225
2018-10-16T08:50:47.923Z,220
2018-10-16T08:51:28.483Z,220
2018-10-16T08:52:09.072Z,215
2018-10-16T08:52:49.693Z,210
2018-10-16T08:53:30.285Z,205
2018-10-16T08:54:10.879Z,205
2018-10-16T08:54:51.446Z,200
2018-10-16T08:55:32.026Z,195
2018-10-16T08:56:12.655Z,190
2018-10-16T08:56:53.248Z,190
2018-10-16T08:57:33.840Z,185
2018-10-16T08:58:14.415Z,185
2018-10-16T08:58:54.972Z,185
2018-10-16T08:59:35.540Z,180
2018-10-16T09:00:16.130Z,175
2018-10-16T09:00:56.712Z,175
2018-10-16T09:01:37.278Z,170
2018-10-16T09:02:17.833Z,170
2018-10-16T09:02:58.404Z,165
2018-10-16T09:03:38.984Z,165
2018-10-16T09:04:19.545Z,160
2018-10-16T09:05:00.100Z,160
2018-10-16T09:05:40.677Z,155
2018-10-16T09:06:21.233Z,155
2018-10-16T09:07:01.786Z,150
2018-10-16T09:07:42.355Z,150
2018-10-16T09:08:22.993Z,150
2018-10-16T09:09:03.569Z,145
2018-10-16T09:09:44.141Z,145
2018-10-16T09:10:24.703Z,145
2018-10-16T09:11:05.258Z,145
2018-10-16T09:11:45.826Z,145
2018-10-16T09:12:26.384Z,140
2018-10-16T09:13:07.036Z,140
2018-10-16T09:13:47.547Z,140
2018-10-16T09:14:28.193Z,140
2018-10-16T09:15:08.746Z,140
2018-10-16T09:15:49.331Z,140
2018-10-16T09:16:29.890Z,140
2018-10-16T09:17:10.455Z,135
2018-10-16T09:17:51.038Z,135
2018-10-16T09:18:31.760Z,135
2018-10-16T09:19:12.329Z,135
2018-10-16T09:19:52.898Z,135
2018-10-16T09:20:33.452Z,135
2018-10-16T09:21:14.023Z,135
2018-10-16T09:21:54.606Z,135
2018-10-16T09:22:35.160Z,135
2018-10-16T09:23:15.753Z,135
2018-10-16T09:23:56.321Z,135
2018-10-16T09:24:36.925Z,135
2018-10-16T09:25:17.463Z,135
2018-10-16T09:25:58.045Z,130
2018-10-16T09:26:38.645Z,130
2018-10-16T09:27:19.241Z,130
2018-10-16T09:27:59.754Z,130
2018-10-16T09:28:40.339Z,130
2018-10-16T09:29:20.893Z,130
2018-10-16T09:30:01.466Z,130
2018-10-16T09:30:42.067Z,130
2018-10-16T09:31:22.624Z,130
2018-10-16T09:32:03.220Z,125
2018-10-16T09:32:43.784Z,125
2018-10-16T09:33:24.351Z,125
2018-10-16T09:34:04.922Z,125
2018-10-16T09:34:45.503Z,125
2018-10-16T09:35:26.084Z,125
2018-10-16T09:36:06.669Z,125
2018-10-16T09:36:47.234Z,125
2018-10-16T09:37:27.798Z,125
2018-10-16T09:38:08.432Z,125
2018-10-16T09:38:48.913Z,125
2018-10-16T09:39:29.535Z,125
2018-10-16T09:40:10.155Z,125
2018-10-16T09:40:50.703Z,120
2018-10-16T09:41:31.262Z,120
2018-10-16T09:42:11.828Z,120
2018-10-16T09:42:52.431Z,120
2018-10-16T09:43:33.011Z,120
2018-10-16T09:44:13.589Z,120
2018-10-16T09:44:54.173Z,120
2018-10-16T09:45:34.746Z,120
2018-10-16T09:46:15.341Z,120
2018-10-16T09:46:55.898Z,120
2018-10-16T09:47:36.496Z,120